sensor_id;sensor_type;location;lat;lon;timestamp;pressure;altitude;pressure_sealevel;temperature;humidity
85094;BME280;75432;49.056;12.004;2024-02-26T00:00:46;94798.84;;;1.59;87.18
85094;BME280;75432;49.056;12.004;2024-02-26T00:03:13;94887.25;;;2.06;87.07
85094;BME280;75432;49.056;12.004;2024-02-26T00:05:39;94698.78;;;1.35;87.84
85094;BME280;75432;49.056;12.004;2024-02-26T00:08:06;95052.00;;;2.95;87.92
85094;BME280;75432;49.056;12.004;2024-02-26T00:10:33;94798.72;;;1.82;87.94
85094;BME280;75432;49.056;12.004;2024-02-26T00:12:59;94314.16;;;-1.38;87.52
85094;BME280;75432;49.056;12.004;2024-02-26T00:15:26;94617.75;;;0.24;88.01
85094;BME280;75432;49.056;12.004;2024-02-26T00:17:54;94550.50;;;0.00;87.63
85094;BME280;75432;49.056;12.004;2024-02-26T00:20:21;94483.03;;;-0.06;87.43
85094;BME280;75432;49.056;12.004;2024-02-26T00:22:47;94825.34;;;1.97;87.71
85094;BME280;75432;49.056;12.004;2024-02-26T00:25:14;94522.88;;;0.14;87.49
85094;BME280;75432;49.056;12.004;2024-02-26T00:27:40;94588.34;;;0.56;88.16
85094;BME280;75432;49.056;12.004;2024-02-26T00:30:08;94438.22;;;-0.68;87.80
85094;BME280;75432;49.056;12.004;2024-02-26T00:32:35;94666.47;;;0.95;88.06
85094;BME280;75432;49.056;12.004;2024-02-26T00:35:02;95043.66;;;3.36;87.96
85094;BME280;75432;49.056;12.004;2024-02-26T00:37:28;94736.50;;;1.36;88.22
85094;BME280;75432;49.056;12.004;2024-02-26T00:39:55;95005.13;;;3.07;88.31
85094;BME280;75432;49.056;12.004;2024-02-26T00:42:22;94868.50;;;2.19;88.20
85094;BME280;75432;49.056;12.004;2024-02-26T00:44:48;94949.00;;;2.67;88.15
85094;BME280;75432;49.056;12.004;2024-02-26T00:47:15;94982.41;;;2.73;88.29
85094;BME280;75432;49.056;12.004;2024-02-26T00:49:41;94827.66;;;1.93;88.02
85094;BME280;75432;49.056;12.004;2024-02-26T00:52:08;94630.66;;;0.66;88.10
85094;BME280;75432;49.056;12.004;2024-02-26T00:54:34;94597.19;;;0.50;88.21
85094;BME280;75432;49.056;12.004;2024-02-26T00:57:01;94314.28;;;-1.33;87.64
85094;BME280;75432;49.056;12.004;2024-02-26T00:59:27;94763.56;;;1.31;88.74
85094;BME280;75432;49.056;12.004;2024-02-26T01:01:54;94636.25;;;0.69;87.97
85094;BME280;75432;49.056;12.004;2024-02-26T01:04:20;94710.03;;;1.14;88.20
85094;BME280;75432;49.056;12.004;2024-02-26T01:06:47;94905.13;;;2.32;88.38
85094;BME280;75432;49.056;12.004;2024-02-26T01:09:13;95028.69;;;3.09;88.58
85094;BME280;75432;49.056;12.004;2024-02-26T01:11:40;94922.19;;;2.42;88.78
85094;BME280;75432;49.056;12.004;2024-02-26T01:14:07;94820.69;;;1.71;88.28
85094;BME280;75432;49.056;12.004;2024-02-26T01:16:33;94706.41;;;1.04;88.66
85094;BME280;75432;49.056;12.004;2024-02-26T01:19:00;95090.75;;;3.06;88.79
85094;BME280;75432;49.056;12.004;2024-02-26T01:21:26;94523.50;;;-0.07;88.16
85094;BME280;75432;49.056;12.004;2024-02-26T01:23:55;94955.88;;;2.68;88.77
85094;BME280;75432;49.056;12.004;2024-02-26T01:26:22;94590.16;;;-0.02;88.12
85094;BME280;75432;49.056;12.004;2024-02-26T01:28:48;94816.63;;;1.80;88.38
85094;BME280;75432;49.056;12.004;2024-02-26T01:31:15;94739.84;;;1.31;88.38
85094;BME280;75432;49.056;12.004;2024-02-26T01:33:41;94457.50;;;-0.51;87.95
85094;BME280;75432;49.056;12.004;2024-02-26T01:36:08;94785.34;;;1.55;88.31
85094;BME280;75432;49.056;12.004;2024-02-26T01:38:34;94770.63;;;1.42;87.85
85094;BME280;75432;49.056;12.004;2024-02-26T01:41:01;94864.81;;;2.04;88.02
85094;BME280;75432;49.056;12.004;2024-02-26T01:43:27;94823.66;;;1.74;88.26
85094;BME280;75432;49.056;12.004;2024-02-26T01:45:54;95074.84;;;3.01;88.23
85094;BME280;75432;49.056;12.004;2024-02-26T01:48:21;94455.59;;;-0.67;87.93
85094;BME280;75432;49.056;12.004;2024-02-26T01:50:48;94369.06;;;-1.36;87.57
85094;BME280;75432;49.056;12.004;2024-02-26T01:53:16;95056.78;;;2.98;88.42
85094;BME280;75432;49.056;12.004;2024-02-26T01:55:43;94646.69;;;0.24;87.86
85094;BME280;75432;49.056;12.004;2024-02-26T01:58:10;94631.06;;;0.06;87.55
85094;BME280;75432;49.056;12.004;2024-02-26T02:00:37;94838.50;;;1.64;87.98
85094;BME280;75432;49.056;12.004;2024-02-26T02:03:05;94774.28;;;0.85;88.15
85094;BME280;75432;49.056;12.004;2024-02-26T02:05:32;94808.13;;;1.33;87.94
85094;BME280;75432;49.056;12.004;2024-02-26T02:08:00;94777.28;;;0.77;88.08
85094;BME280;75432;49.056;12.004;2024-02-26T02:10:26;94333.16;;;-2.47;87.54
85094;BME280;75432;49.056;12.004;2024-02-26T02:12:53;94690.56;;;0.87;87.63
85094;BME280;75432;49.056;12.004;2024-02-26T02:15:20;94882.94;;;1.72;87.80
85094;BME280;75432;49.056;12.004;2024-02-26T02:17:47;95054.28;;;2.75;88.16
85094;BME280;75432;49.056;12.004;2024-02-26T02:20:18;94932.00;;;2.29;87.63
85094;BME280;75432;49.056;12.004;2024-02-26T02:22:45;94826.81;;;1.60;87.58
85094;BME280;75432;49.056;12.004;2024-02-26T02:25:12;94812.44;;;1.51;87.76
85094;BME280;75432;49.056;12.004;2024-02-26T02:27:39;94969.59;;;2.20;87.79
85094;BME280;75432;49.056;12.004;2024-02-26T02:30:07;94760.19;;;1.19;87.65
85094;BME280;75432;49.056;12.004;2024-02-26T02:32:37;94730.25;;;0.69;87.78
85094;BME280;75432;49.056;12.004;2024-02-26T02:35:04;94830.16;;;1.55;87.83
85094;BME280;75432;49.056;12.004;2024-02-26T02:37:31;94804.16;;;1.30;87.62
85094;BME280;75432;49.056;12.004;2024-02-26T02:39:58;94842.53;;;1.55;87.75
85094;BME280;75432;49.056;12.004;2024-02-26T02:42:24;94589.19;;;0.16;87.32
85094;BME280;75432;49.056;12.004;2024-02-26T02:44:51;94720.38;;;0.76;87.43
85094;BME280;75432;49.056;12.004;2024-02-26T02:47:18;95034.84;;;2.81;87.67
85094;BME280;75432;49.056;12.004;2024-02-26T02:49:44;94375.41;;;-1.09;86.91
85094;BME280;75432;49.056;12.004;2024-02-26T02:52:11;94585.84;;;0.21;87.29
85094;BME280;75432;49.056;12.004;2024-02-26T02:54:37;94940.19;;;2.45;87.62
85094;BME280;75432;49.056;12.004;2024-02-26T02:57:07;94993.84;;;2.78;87.29
85094;BME280;75432;49.056;12.004;2024-02-26T02:59:34;94993.28;;;2.76;87.30
85094;BME280;75432;49.056;12.004;2024-02-26T03:02:01;94778.34;;;1.32;87.20
85094;BME280;75432;49.056;12.004;2024-02-26T03:04:27;94957.59;;;2.29;87.11
85094;BME280;75432;49.056;12.004;2024-02-26T03:06:55;94505.69;;;-0.57;86.93
85094;BME280;75432;49.056;12.004;2024-02-26T03:09:22;94794.53;;;1.24;86.96
85094;BME280;75432;49.056;12.004;2024-02-26T03:11:49;94861.69;;;1.62;86.82
85094;BME280;75432;49.056;12.004;2024-02-26T03:14:16;94935.34;;;2.08;86.89
85094;BME280;75432;49.056;12.004;2024-02-26T03:16:42;94914.19;;;1.52;86.96
85094;BME280;75432;49.056;12.004;2024-02-26T03:19:09;94941.56;;;2.02;86.91
85094;BME280;75432;49.056;12.004;2024-02-26T03:21:36;94792.63;;;1.08;86.80
85094;BME280;75432;49.056;12.004;2024-02-26T03:24:02;94501.59;;;-0.76;86.46
85094;BME280;75432;49.056;12.004;2024-02-26T03:26:29;94782.22;;;1.02;86.87
85094;BME280;75432;49.056;12.004;2024-02-26T03:28:57;94772.56;;;0.79;86.99
85094;BME280;75432;49.056;12.004;2024-02-26T03:31:24;94998.34;;;2.33;86.88
85094;BME280;75432;49.056;12.004;2024-02-26T03:33:50;94991.38;;;2.27;86.83
85094;BME280;75432;49.056;12.004;2024-02-26T03:36:17;94833.50;;;1.22;86.83
85094;BME280;75432;49.056;12.004;2024-02-26T03:38:43;94919.41;;;1.75;86.71
85094;BME280;75432;49.056;12.004;2024-02-26T03:41:10;94397.91;;;-1.71;86.18
85094;BME280;75432;49.056;12.004;2024-02-26T03:43:37;94954.78;;;1.90;86.21
85094;BME280;75432;49.056;12.004;2024-02-26T03:46:03;94603.47;;;-0.31;85.87
85094;BME280;75432;49.056;12.004;2024-02-26T03:48:30;94657.84;;;0.03;86.04
85094;BME280;75432;49.056;12.004;2024-02-26T03:50:56;94633.41;;;-0.21;85.85
85094;BME280;75432;49.056;12.004;2024-02-26T03:53:23;94691.09;;;-0.37;86.05
85094;BME280;75432;49.056;12.004;2024-02-26T03:55:49;95016.75;;;2.16;86.33
85094;BME280;75432;49.056;12.004;2024-02-26T03:58:18;94700.22;;;0.30;86.08
85094;BME280;75432;49.056;12.004;2024-02-26T04:00:45;94988.91;;;2.09;86.48
85094;BME280;75432;49.056;12.004;2024-02-26T04:03:14;94478.31;;;-1.54;86.00
85094;BME280;75432;49.056;12.004;2024-02-26T04:05:40;94538.03;;;-0.91;85.47
85094;BME280;75432;49.056;12.004;2024-02-26T04:08:07;94604.84;;;-0.40;85.85
85094;BME280;75432;49.056;12.004;2024-02-26T04:10:34;94265.72;;;-2.75;85.48
85094;BME280;75432;49.056;12.004;2024-02-26T04:13:07;94674.75;;;0.07;85.91
85094;BME280;75432;49.056;12.004;2024-02-26T04:15:34;94681.53;;;-0.20;85.79
85094;BME280;75432;49.056;12.004;2024-02-26T04:18:01;95019.09;;;2.01;86.06
85094;BME280;75432;49.056;12.004;2024-02-26T04:20:29;94677.75;;;-0.47;85.48
85094;BME280;75432;49.056;12.004;2024-02-26T04:22:56;94378.41;;;-1.87;85.35
85094;BME280;75432;49.056;12.004;2024-02-26T04:25:22;94729.19;;;-0.28;85.22
85094;BME280;75432;49.056;12.004;2024-02-26T04:27:49;94796.97;;;0.74;85.80
85094;BME280;75432;49.056;12.004;2024-02-26T04:30:16;94999.06;;;2.00;85.74
85094;BME280;75432;49.056;12.004;2024-02-26T04:32:43;94376.31;;;-2.08;85.25
85094;BME280;75432;49.056;12.004;2024-02-26T04:35:10;95023.59;;;2.01;85.55
85094;BME280;75432;49.056;12.004;2024-02-26T04:37:37;94237.94;;;-2.76;85.12
85094;BME280;75432;49.056;12.004;2024-02-26T04:40:04;94473.53;;;-1.33;85.52
85094;BME280;75432;49.056;12.004;2024-02-26T04:42:31;94738.22;;;0.22;85.62
85094;BME280;75432;49.056;12.004;2024-02-26T04:44:58;94307.75;;;-2.58;85.24
85094;BME280;75432;49.056;12.004;2024-02-26T04:47:24;94565.56;;;-0.82;85.52
85094;BME280;75432;49.056;12.004;2024-02-26T04:49:51;95007.00;;;1.88;85.96
85094;BME280;75432;49.056;12.004;2024-02-26T04:52:19;94429.72;;;-1.68;85.71
85094;BME280;75432;49.056;12.004;2024-02-26T04:54:45;94581.75;;;-0.73;85.68
85094;BME280;75432;49.056;12.004;2024-02-26T04:57:12;94669.88;;;-0.47;85.69
85094;BME280;75432;49.056;12.004;2024-02-26T04:59:38;94499.78;;;-1.22;85.15
85094;BME280;75432;49.056;12.004;2024-02-26T05:02:07;94926.06;;;1.37;85.49
85094;BME280;75432;49.056;12.004;2024-02-26T05:04:33;94475.69;;;-1.54;85.70
85094;BME280;75432;49.056;12.004;2024-02-26T05:07:00;94624.59;;;-0.61;85.65
85094;BME280;75432;49.056;12.004;2024-02-26T05:09:26;95013.19;;;1.82;86.00
85094;BME280;75432;49.056;12.004;2024-02-26T05:11:53;95010.88;;;1.86;86.08
85094;BME280;75432;49.056;12.004;2024-02-26T05:14:19;94613.06;;;-0.72;85.47
85094;BME280;75432;49.056;12.004;2024-02-26T05:16:46;94921.94;;;1.30;85.53
85094;BME280;75432;49.056;12.004;2024-02-26T05:19:13;95032.69;;;1.93;85.52
85094;BME280;75432;49.056;12.004;2024-02-26T05:21:40;95018.91;;;1.91;85.73
85094;BME280;75432;49.056;12.004;2024-02-26T05:24:06;94930.19;;;1.33;85.56
85094;BME280;75432;49.056;12.004;2024-02-26T05:26:34;94962.34;;;1.47;85.62
85094;BME280;75432;49.056;12.004;2024-02-26T05:29:00;94835.91;;;0.61;85.67
85094;BME280;75432;49.056;12.004;2024-02-26T05:31:27;95001.53;;;1.55;85.35
85094;BME280;75432;49.056;12.004;2024-02-26T05:33:55;95034.22;;;1.66;85.21
85094;BME280;75432;49.056;12.004;2024-02-26T05:36:21;94927.47;;;0.93;85.05
85094;BME280;75432;49.056;12.004;2024-02-26T05:38:49;94926.31;;;0.89;84.91
85094;BME280;75432;49.056;12.004;2024-02-26T05:41:16;94905.03;;;0.68;84.88
85094;BME280;75432;49.056;12.004;2024-02-26T05:43:43;94792.78;;;-0.08;85.15
85094;BME280;75432;49.056;12.004;2024-02-26T05:46:09;94826.41;;;0.13;85.40
85094;BME280;75432;49.056;12.004;2024-02-26T05:48:36;95017.03;;;1.28;85.77
85094;BME280;75432;49.056;12.004;2024-02-26T05:51:04;94748.38;;;-0.39;85.84
85094;BME280;75432;49.056;12.004;2024-02-26T05:53:30;94777.06;;;-0.26;86.05
85094;BME280;75432;49.056;12.004;2024-02-26T05:55:56;95007.41;;;0.87;85.96
85094;BME280;75432;49.056;12.004;2024-02-26T05:58:23;94733.44;;;-0.69;85.62
85094;BME280;75432;49.056;12.004;2024-02-26T06:00:49;95023.78;;;1.48;85.92
85094;BME280;75432;49.056;12.004;2024-02-26T06:03:16;94807.06;;;-0.04;85.53
85094;BME280;75432;49.056;12.004;2024-02-26T06:05:43;94944.06;;;0.94;85.20
85094;BME280;75432;49.056;12.004;2024-02-26T06:08:10;94885.59;;;0.69;84.95
85094;BME280;75432;49.056;12.004;2024-02-26T06:10:36;94561.75;;;-1.32;85.14
85094;BME280;75432;49.056;12.004;2024-02-26T06:13:03;94406.09;;;-2.32;84.54
85094;BME280;75432;49.056;12.004;2024-02-26T06:15:30;94808.09;;;0.18;85.16
85094;BME280;75432;49.056;12.004;2024-02-26T06:17:56;94720.69;;;-0.42;85.12
85094;BME280;75432;49.056;12.004;2024-02-26T06:20:23;94915.44;;;0.63;85.18
85094;BME280;75432;49.056;12.004;2024-02-26T06:22:49;94782.13;;;-0.02;85.02
85094;BME280;75432;49.056;12.004;2024-02-26T06:25:16;94710.97;;;-0.53;84.82
85094;BME280;75432;49.056;12.004;2024-02-26T06:27:42;94540.81;;;-1.62;84.93
85094;BME280;75432;49.056;12.004;2024-02-26T06:30:09;94482.38;;;-2.41;84.80
85094;BME280;75432;49.056;12.004;2024-02-26T06:32:37;94637.44;;;-1.06;84.90
85094;BME280;75432;49.056;12.004;2024-02-26T06:35:04;94612.19;;;-1.19;84.62
85094;BME280;75432;49.056;12.004;2024-02-26T06:37:35;94622.13;;;-1.21;84.84
85094;BME280;75432;49.056;12.004;2024-02-26T06:40:03;94994.00;;;1.24;84.90
85094;BME280;75432;49.056;12.004;2024-02-26T06:42:35;94964.94;;;1.07;84.91
85094;BME280;75432;49.056;12.004;2024-02-26T06:45:04;94727.25;;;-0.86;84.71
85094;BME280;75432;49.056;12.004;2024-02-26T06:47:31;94359.81;;;-2.80;85.10
85094;BME280;75432;49.056;12.004;2024-02-26T06:49:57;94527.59;;;-1.56;85.14
85094;BME280;75432;49.056;12.004;2024-02-26T06:52:24;94782.47;;;0.02;84.90
85094;BME280;75432;49.056;12.004;2024-02-26T06:54:52;94583.88;;;-1.28;84.86
85094;BME280;75432;49.056;12.004;2024-02-26T06:57:20;94878.25;;;0.71;84.86
85094;BME280;75432;49.056;12.004;2024-02-26T06:59:46;94715.03;;;-0.27;84.56
85094;BME280;75432;49.056;12.004;2024-02-26T07:02:14;94877.22;;;0.72;84.65
85094;BME280;75432;49.056;12.004;2024-02-26T07:04:40;94419.69;;;-2.12;84.42
85094;BME280;75432;49.056;12.004;2024-02-26T07:07:08;94940.16;;;1.08;84.72
85094;BME280;75432;49.056;12.004;2024-02-26T07:09:35;94944.03;;;1.40;84.83
85094;BME280;75432;49.056;12.004;2024-02-26T07:12:01;94822.03;;;0.77;84.36
85094;BME280;75432;49.056;12.004;2024-02-26T07:14:28;94990.97;;;1.67;84.42
85094;BME280;75432;49.056;12.004;2024-02-26T07:16:55;95086.47;;;2.72;83.79
85094;BME280;75432;49.056;12.004;2024-02-26T07:19:23;94741.81;;;0.56;83.42
85094;BME280;75432;49.056;12.004;2024-02-26T07:21:50;94959.00;;;1.63;83.37
85094;BME280;75432;49.056;12.004;2024-02-26T07:24:17;94863.50;;;1.21;82.88
85094;BME280;75432;49.056;12.004;2024-02-26T07:26:44;94786.91;;;0.60;82.77
85094;BME280;75432;49.056;12.004;2024-02-26T07:29:11;95108.84;;;2.98;83.43
85094;BME280;75432;49.056;12.004;2024-02-26T07:31:37;94860.97;;;1.38;83.09
85094;BME280;75432;49.056;12.004;2024-02-26T07:34:04;95029.63;;;2.41;82.89
85094;BME280;75432;49.056;12.004;2024-02-26T07:36:31;94857.97;;;1.46;82.79
85094;BME280;75432;49.056;12.004;2024-02-26T07:38:57;95143.34;;;3.19;83.07
85094;BME280;75432;49.056;12.004;2024-02-26T07:41:24;94651.09;;;0.07;82.54
85094;BME280;75432;49.056;12.004;2024-02-26T07:43:52;95150.56;;;3.41;82.73
85094;BME280;75432;49.056;12.004;2024-02-26T07:46:18;94784.13;;;1.18;82.18
85094;BME280;75432;49.056;12.004;2024-02-26T07:48:45;94884.41;;;2.08;81.60
85094;BME280;75432;49.056;12.004;2024-02-26T07:51:13;94810.34;;;1.53;81.37
85094;BME280;75432;49.056;12.004;2024-02-26T07:53:40;95034.13;;;3.02;81.47
85094;BME280;75432;49.056;12.004;2024-02-26T07:56:07;95152.16;;;4.08;81.19
85094;BME280;75432;49.056;12.004;2024-02-26T07:58:35;94900.31;;;2.63;80.81
85094;BME280;75432;49.056;12.004;2024-02-26T08:01:01;94816.59;;;2.63;80.47
85094;BME280;75432;49.056;12.004;2024-02-26T08:03:28;94529.44;;;0.73;79.86
85094;BME280;75432;49.056;12.004;2024-02-26T08:05:55;94955.31;;;3.54;79.51
85094;BME280;75432;49.056;12.004;2024-02-26T08:08:22;95139.63;;;4.64;79.72
85094;BME280;75432;49.056;12.004;2024-02-26T08:10:49;95022.56;;;3.80;79.24
85094;BME280;75432;49.056;12.004;2024-02-26T08:13:16;94601.75;;;1.49;79.09
85094;BME280;75432;49.056;12.004;2024-02-26T08:15:42;94792.41;;;2.71;79.25
85094;BME280;75432;49.056;12.004;2024-02-26T08:18:09;94997.47;;;4.04;79.55
85094;BME280;75432;49.056;12.004;2024-02-26T08:20:36;95038.81;;;4.54;79.42
85094;BME280;75432;49.056;12.004;2024-02-26T08:23:02;95110.16;;;4.82;79.17
85094;BME280;75432;49.056;12.004;2024-02-26T08:25:29;94973.94;;;4.08;78.47
85094;BME280;75432;49.056;12.004;2024-02-26T08:27:56;94683.44;;;1.99;78.44
85094;BME280;75432;49.056;12.004;2024-02-26T08:30:22;94851.31;;;2.88;78.59
85094;BME280;75432;49.056;12.004;2024-02-26T08:32:49;95071.56;;;4.69;78.35
85094;BME280;75432;49.056;12.004;2024-02-26T08:35:18;94907.78;;;3.21;78.10
85094;BME280;75432;49.056;12.004;2024-02-26T08:37:46;95062.31;;;4.72;78.81
85094;BME280;75432;49.056;12.004;2024-02-26T08:40:13;95029.81;;;4.55;78.51
85094;BME280;75432;49.056;12.004;2024-02-26T08:42:40;95033.59;;;4.64;78.59
85094;BME280;75432;49.056;12.004;2024-02-26T08:45:07;94893.09;;;3.73;78.22
85094;BME280;75432;49.056;12.004;2024-02-26T08:47:34;94855.59;;;3.55;78.33
85094;BME280;75432;49.056;12.004;2024-02-26T08:50:01;94683.13;;;2.56;77.81
85094;BME280;75432;49.056;12.004;2024-02-26T08:52:28;94959.13;;;4.33;77.94
85094;BME280;75432;49.056;12.004;2024-02-26T08:54:54;94756.00;;;2.95;77.32
85094;BME280;75432;49.056;12.004;2024-02-26T08:57:21;94785.25;;;3.10;77.60
85094;BME280;75432;49.056;12.004;2024-02-26T08:59:47;95138.34;;;5.47;77.90
85094;BME280;75432;49.056;12.004;2024-02-26T09:02:14;94881.66;;;3.95;77.39
85094;BME280;75432;49.056;12.004;2024-02-26T09:04:40;94992.50;;;4.88;77.53
85094;BME280;75432;49.056;12.004;2024-02-26T09:07:07;94760.06;;;3.51;76.93
85094;BME280;75432;49.056;12.004;2024-02-26T09:09:34;94785.56;;;3.94;76.68
85094;BME280;75432;49.056;12.004;2024-02-26T09:12:00;94675.09;;;3.48;75.95
85094;BME280;75432;49.056;12.004;2024-02-26T09:14:27;94701.94;;;3.61;75.32
85094;BME280;75432;49.056;12.004;2024-02-26T09:16:54;94810.81;;;4.70;74.93
85094;BME280;75432;49.056;12.004;2024-02-26T09:19:20;94651.09;;;3.86;74.30
85094;BME280;75432;49.056;12.004;2024-02-26T09:21:47;94930.47;;;5.83;74.17
85094;BME280;75432;49.056;12.004;2024-02-26T09:24:13;94940.38;;;5.93;73.83
85094;BME280;75432;49.056;12.004;2024-02-26T09:26:41;94639.81;;;4.06;73.68
85094;BME280;75432;49.056;12.004;2024-02-26T09:29:07;95034.91;;;6.56;73.26
85094;BME280;75432;49.056;12.004;2024-02-26T09:31:34;95099.34;;;6.93;73.02
85094;BME280;75432;49.056;12.004;2024-02-26T09:34:01;94911.47;;;5.49;72.79
85094;BME280;75432;49.056;12.004;2024-02-26T09:36:28;94915.84;;;5.81;72.52
85094;BME280;75432;49.056;12.004;2024-02-26T09:38:55;94794.88;;;5.17;72.33
85094;BME280;75432;49.056;12.004;2024-02-26T09:41:30;95009.63;;;6.53;69.75
85094;BME280;75432;49.056;12.004;2024-02-26T09:43:57;95185.13;;;7.26;70.26
85094;BME280;75432;49.056;12.004;2024-02-26T09:46:25;94916.34;;;5.67;68.53
85094;BME280;75432;49.056;12.004;2024-02-26T09:48:52;94852.97;;;5.19;70.13
85094;BME280;75432;49.056;12.004;2024-02-26T09:51:21;94940.56;;;5.81;69.94
85094;BME280;75432;49.056;12.004;2024-02-26T09:53:51;94902.97;;;5.52;69.78
85094;BME280;75432;49.056;12.004;2024-02-26T09:56:19;95143.06;;;7.28;69.87
85094;BME280;75432;49.056;12.004;2024-02-26T09:58:45;94973.56;;;5.90;67.77
85094;BME280;75432;49.056;12.004;2024-02-26T10:01:19;94899.66;;;5.20;66.83
85094;BME280;75432;49.056;12.004;2024-02-26T10:03:52;95102.94;;;6.52;67.83
85094;BME280;75432;49.056;12.004;2024-02-26T10:06:21;95069.31;;;6.20;68.77
85094;BME280;75432;49.056;12.004;2024-02-26T10:08:48;95001.50;;;5.61;69.25
85094;BME280;75432;49.056;12.004;2024-02-26T10:11:15;95116.03;;;6.63;69.84
85094;BME280;75432;49.056;12.004;2024-02-26T10:13:43;94675.09;;;3.79;69.56
85094;BME280;75432;49.056;12.004;2024-02-26T10:16:09;95230.22;;;6.95;69.60
85094;BME280;75432;49.056;12.004;2024-02-26T10:18:47;94930.88;;;5.55;68.54
85094;BME280;75432;49.056;12.004;2024-02-26T10:21:25;94912.63;;;5.21;68.58
85094;BME280;75432;49.056;12.004;2024-02-26T10:23:51;95040.44;;;6.39;68.53
85094;BME280;75432;49.056;12.004;2024-02-26T10:26:19;94753.84;;;4.78;68.41
85094;BME280;75432;49.056;12.004;2024-02-26T10:28:46;94855.44;;;5.41;68.09
85094;BME280;75432;49.056;12.004;2024-02-26T10:31:18;95153.69;;;7.12;67.96
85094;BME280;75432;49.056;12.004;2024-02-26T10:33:45;95075.94;;;6.85;68.12
85094;BME280;75432;49.056;12.004;2024-02-26T10:36:12;94806.06;;;5.35;68.05
85094;BME280;75432;49.056;12.004;2024-02-26T10:38:39;94661.28;;;4.61;68.08
85094;BME280;75432;49.056;12.004;2024-02-26T10:41:13;95164.38;;;7.43;67.16
85094;BME280;75432;49.056;12.004;2024-02-26T10:43:42;94768.13;;;5.34;66.74
85094;BME280;75432;49.056;12.004;2024-02-26T10:46:08;94867.34;;;5.95;66.67
85094;BME280;75432;49.056;12.004;2024-02-26T10:48:36;94732.78;;;5.08;66.58
85094;BME280;75432;49.056;12.004;2024-02-26T10:51:03;94943.44;;;6.47;66.27
85094;BME280;75432;49.056;12.004;2024-02-26T10:53:31;94932.56;;;6.48;65.59
85094;BME280;75432;49.056;12.004;2024-02-26T10:56:02;94937.84;;;6.38;63.74
85094;BME280;75432;49.056;12.004;2024-02-26T10:58:31;94785.44;;;5.52;64.00
85094;BME280;75432;49.056;12.004;2024-02-26T11:00:58;95035.25;;;7.05;64.15
85094;BME280;75432;49.056;12.004;2024-02-26T11:03:26;94975.09;;;6.63;64.02
85094;BME280;75432;49.056;12.004;2024-02-26T11:05:53;95211.88;;;7.91;64.20
85094;BME280;75432;49.056;12.004;2024-02-26T11:08:22;94940.28;;;6.60;64.16
85094;BME280;75432;49.056;12.004;2024-02-26T11:10:53;95156.94;;;8.15;62.16
85094;BME280;75432;49.056;12.004;2024-02-26T11:13:21;95155.09;;;8.36;63.66
85094;BME280;75432;49.056;12.004;2024-02-26T11:15:49;95103.13;;;8.03;62.87
85094;BME280;75432;49.056;12.004;2024-02-26T11:18:19;95098.84;;;8.07;62.71
85094;BME280;75432;49.056;12.004;2024-02-26T11:20:46;95052.00;;;7.86;62.68
85094;BME280;75432;49.056;12.004;2024-02-26T11:23:14;95156.88;;;8.66;62.05
85094;BME280;75432;49.056;12.004;2024-02-26T11:25:41;95179.25;;;8.80;62.68
85094;BME280;75432;49.056;12.004;2024-02-26T11:28:14;94946.84;;;7.58;62.74
85094;BME280;75432;49.056;12.004;2024-02-26T11:30:46;94844.44;;;7.31;63.04
85094;BME280;75432;49.056;12.004;2024-02-26T11:33:15;94922.53;;;7.90;62.84
85094;BME280;75432;49.056;12.004;2024-02-26T11:35:42;95066.97;;;8.61;61.83
85094;BME280;75432;49.056;12.004;2024-02-26T11:38:17;95033.75;;;8.44;61.06
85094;BME280;75432;49.056;12.004;2024-02-26T11:40:44;94764.81;;;6.60;61.63
85094;BME280;75432;49.056;12.004;2024-02-26T11:43:11;95091.34;;;8.45;61.72
85094;BME280;75432;49.056;12.004;2024-02-26T11:48:25;95179.75;;;8.82;61.71
85094;BME280;75432;49.056;12.004;2024-02-26T11:50:54;94964.09;;;7.86;61.06
85094;BME280;75432;49.056;12.004;2024-02-26T11:53:21;95148.53;;;9.42;60.79
85094;BME280;75432;49.056;12.004;2024-02-26T11:59:04;94950.22;;;9.26;55.83
85094;BME280;75432;49.056;12.004;2024-02-26T12:04:29;95164.84;;;11.74;54.15
85094;BME280;75432;49.056;12.004;2024-02-26T12:07:00;95059.38;;;11.65;52.90
85094;BME280;75432;49.056;12.004;2024-02-26T12:09:39;95104.41;;;11.63;49.94
85094;BME280;75432;49.056;12.004;2024-02-26T12:12:07;94986.31;;;10.71;52.99
85094;BME280;75432;49.056;12.004;2024-02-26T12:14:50;94961.34;;;10.57;52.26
85094;BME280;75432;49.056;12.004;2024-02-26T12:17:23;94963.00;;;10.53;54.19
85094;BME280;75432;49.056;12.004;2024-02-26T12:19:51;95078.28;;;10.80;53.83
85094;BME280;75432;49.056;12.004;2024-02-26T12:22:19;94826.03;;;8.76;54.88
85094;BME280;75432;49.056;12.004;2024-02-26T12:24:46;94867.09;;;8.80;56.36
85094;BME280;75432;49.056;12.004;2024-02-26T12:27:12;94915.75;;;8.62;56.27
85094;BME280;75432;49.056;12.004;2024-02-26T12:29:39;95170.41;;;10.22;56.79
85094;BME280;75432;49.056;12.004;2024-02-26T12:32:06;94892.81;;;8.17;56.15
85094;BME280;75432;49.056;12.004;2024-02-26T12:34:34;95172.38;;;9.67;56.34
85094;BME280;75432;49.056;12.004;2024-02-26T12:37:01;94740.34;;;6.58;56.04
85094;BME280;75432;49.056;12.004;2024-02-26T12:39:27;95197.41;;;9.37;57.30
85094;BME280;75432;49.056;12.004;2024-02-26T12:41:57;94911.47;;;7.43;57.57
85094;BME280;75432;49.056;12.004;2024-02-26T12:44:26;95177.94;;;9.32;58.25
85094;BME280;75432;49.056;12.004;2024-02-26T12:47:00;94694.97;;;6.29;57.39
85094;BME280;75432;49.056;12.004;2024-02-26T12:49:27;95018.84;;;8.28;57.86
85094;BME280;75432;49.056;12.004;2024-02-26T12:51:53;95133.38;;;9.27;58.22
85094;BME280;75432;49.056;12.004;2024-02-26T12:54:20;94978.31;;;8.36;57.95
85094;BME280;75432;49.056;12.004;2024-02-26T12:56:46;95094.09;;;9.33;58.10
85094;BME280;75432;49.056;12.004;2024-02-26T12:59:13;94847.00;;;8.88;56.17
85094;BME280;75432;49.056;12.004;2024-02-26T13:01:40;95170.41;;;12.15;51.81
85094;BME280;75432;49.056;12.004;2024-02-26T13:04:07;95000.03;;;11.72;52.34
85094;BME280;75432;49.056;12.004;2024-02-26T13:06:34;94757.56;;;10.18;51.31